sensor_id;sensor_type;location;lat;lon;timestamp;pressure;altitude;pressure_sealevel;temperature;humidity
69971;BME280;57301;50.328;8.542;2022-09-14T00:02:01;97701.38;;;17.07;97.59
69971;BME280;57301;50.328;8.542;2022-09-14T00:04:28;97701.31;;;17.20;96.37
69971;BME280;57301;50.328;8.542;2022-09-14T00:06:54;97693.16;;;17.33;95.31
69971;BME280;57301;50.328;8.542;2022-09-14T00:09:23;97688.13;;;17.43;94.67
69971;BME280;57301;50.328;8.542;2022-09-14T00:11:50;97669.56;;;17.54;94.18
69971;BME280;57301;50.328;8.542;2022-09-14T00:14:18;97667.69;;;17.54;94.08
69971;BME280;57301;50.328;8.542;2022-09-14T00:16:44;97680.34;;;17.54;94.23
69971;BME280;57301;50.328;8.542;2022-09-14T00:21:49;97679.94;;;17.57;93.50
69971;BME280;57301;50.328;8.542;2022-09-14T00:24:16;97679.91;;;17.32;94.54
69971;BME280;57301;50.328;8.542;2022-09-14T00:26:43;97673.34;;;17.14;95.75
69971;BME280;57301;50.328;8.542;2022-09-14T00:29:09;97676.00;;;17.21;95.36
69971;BME280;57301;50.328;8.542;2022-09-14T00:31:38;97677.38;;;17.30;94.82
69971;BME280;57301;50.328;8.542;2022-09-14T00:34:10;97683.09;;;17.15;95.93
69971;BME280;57301;50.328;8.542;2022-09-14T00:36:42;97692.56;;;17.25;95.18
69971;BME280;57301;50.328;8.542;2022-09-14T00:39:10;97682.00;;;17.23;95.51
69971;BME280;57301;50.328;8.542;2022-09-14T00:41:39;97678.06;;;17.26;95.06
69971;BME280;57301;50.328;8.542;2022-09-14T00:46:40;97677.34;;;17.37;95.08
69971;BME280;57301;50.328;8.542;2022-09-14T00:49:12;97671.50;;;17.46;93.97
69971;BME280;57301;50.328;8.542;2022-09-14T00:51:44;97665.09;;;17.41;93.97
69971;BME280;57301;50.328;8.542;2022-09-14T00:54:12;97667.31;;;17.51;93.47
69971;BME280;57301;50.328;8.542;2022-09-14T00:56:39;97659.28;;;17.06;94.81
69971;BME280;57301;50.328;8.542;2022-09-14T00:59:15;97656.59;;;17.06;95.67
69971;BME280;57301;50.328;8.542;2022-09-14T01:01:43;97650.94;;;17.21;94.92
69971;BME280;57301;50.328;8.542;2022-09-14T01:04:10;97652.28;;;17.36;93.79
69971;BME280;57301;50.328;8.542;2022-09-14T01:06:47;97655.28;;;17.53;93.00
69971;BME280;57301;50.328;8.542;2022-09-14T01:09:27;97665.34;;;17.64;92.37
69971;BME280;57301;50.328;8.542;2022-09-14T01:14:54;97668.22;;;17.69;91.79
69971;BME280;57301;50.328;8.542;2022-09-14T01:22:33;97676.56;;;17.30;93.50
69971;BME280;57301;50.328;8.542;2022-09-14T01:27:44;97668.31;;;17.25;94.58
69971;BME280;57301;50.328;8.542;2022-09-14T01:30:17;97660.53;;;17.41;93.56
69971;BME280;57301;50.328;8.542;2022-09-14T01:33:00;97653.16;;;17.55;92.80
69971;BME280;57301;50.328;8.542;2022-09-14T01:35:38;97639.03;;;17.60;92.51
69971;BME280;57301;50.328;8.542;2022-09-14T01:38:21;97655.84;;;17.62;92.50
69971;BME280;57301;50.328;8.542;2022-09-14T01:40:51;97644.44;;;17.60;92.48
69971;BME280;57301;50.328;8.542;2022-09-14T01:43:28;97642.56;;;17.60;92.08
69971;BME280;57301;50.328;8.542;2022-09-14T01:46:17;97641.31;;;17.63;91.73
69971;BME280;57301;50.328;8.542;2022-09-14T01:49:11;97643.53;;;17.41;93.36
69971;BME280;57301;50.328;8.542;2022-09-14T01:51:47;97638.09;;;17.48;92.62
69971;BME280;57301;50.328;8.542;2022-09-14T01:54:45;97644.88;;;17.57;92.43
69971;BME280;57301;50.328;8.542;2022-09-14T01:57:18;97633.66;;;17.60;92.47
69971;BME280;57301;50.328;8.542;2022-09-14T01:59:48;97624.31;;;17.62;92.68
69971;BME280;57301;50.328;8.542;2022-09-14T02:02:22;97624.50;;;17.61;92.71
69971;BME280;57301;50.328;8.542;2022-09-14T02:07:23;97608.44;;;17.48;93.33
69971;BME280;57301;50.328;8.542;2022-09-14T02:09:50;97603.72;;;17.43;93.31
69971;BME280;57301;50.328;8.542;2022-09-14T02:12:18;97605.97;;;17.46;93.03
69971;BME280;57301;50.328;8.542;2022-09-14T02:14:45;97603.09;;;17.41;93.23
69971;BME280;57301;50.328;8.542;2022-09-14T02:17:12;97595.47;;;17.38;93.44
69971;BME280;57301;50.328;8.542;2022-09-14T02:19:44;97614.16;;;17.33;94.55
69971;BME280;57301;50.328;8.542;2022-09-14T02:22:12;97609.59;;;17.33;94.17
69971;BME280;57301;50.328;8.542;2022-09-14T02:24:39;97604.81;;;17.35;93.92
69971;BME280;57301;50.328;8.542;2022-09-14T02:27:06;97598.94;;;17.45;93.44
69971;BME280;57301;50.328;8.542;2022-09-14T02:29:33;97608.22;;;17.49;92.88
69971;BME280;57301;50.328;8.542;2022-09-14T02:32:11;97601.19;;;17.48;92.73
69971;BME280;57301;50.328;8.542;2022-09-14T02:34:57;97595.44;;;17.44;93.05
69971;BME280;57301;50.328;8.542;2022-09-14T02:37:38;97586.50;;;17.44;92.81
69971;BME280;57301;50.328;8.542;2022-09-14T02:48:03;97582.44;;;17.35;94.06
69971;BME280;57301;50.328;8.542;2022-09-14T02:50:53;97578.03;;;17.40;93.45
69971;BME280;57301;50.328;8.542;2022-09-14T02:56:10;97568.31;;;17.39;93.38
69971;BME280;57301;50.328;8.542;2022-09-14T02:58:42;97560.63;;;17.36;93.97
69971;BME280;57301;50.328;8.542;2022-09-14T03:01:16;97565.84;;;17.38;94.13
69971;BME280;57301;50.328;8.542;2022-09-14T03:03:43;97565.78;;;17.44;93.45
69971;BME280;57301;50.328;8.542;2022-09-14T03:06:10;97562.84;;;17.46;93.39
69971;BME280;57301;50.328;8.542;2022-09-14T03:08:36;97567.19;;;17.47;93.32
69971;BME280;57301;50.328;8.542;2022-09-14T03:11:04;97571.75;;;17.46;93.53
69971;BME280;57301;50.328;8.542;2022-09-14T03:13:31;97571.16;;;17.44;93.80
69971;BME280;57301;50.328;8.542;2022-09-14T03:16:04;97566.38;;;17.46;93.87
69971;BME280;57301;50.328;8.542;2022-09-14T03:18:31;97571.34;;;17.50;93.50
69971;BME280;57301;50.328;8.542;2022-09-14T03:21:05;97563.91;;;17.45;93.64
69971;BME280;57301;50.328;8.542;2022-09-14T03:23:37;97563.06;;;17.44;93.71
69971;BME280;57301;50.328;8.542;2022-09-14T03:26:08;97567.84;;;17.42;93.66
69971;BME280;57301;50.328;8.542;2022-09-14T03:28:35;97560.03;;;17.34;94.29
69971;BME280;57301;50.328;8.542;2022-09-14T03:31:06;97563.97;;;17.38;93.93
69971;BME280;57301;50.328;8.542;2022-09-14T03:33:33;97565.75;;;16.95;97.07
69971;BME280;57301;50.328;8.542;2022-09-14T03:36:15;97569.94;;;17.15;96.34
69971;BME280;57301;50.328;8.542;2022-09-14T03:38:48;97574.69;;;16.88;98.05
69971;BME280;57301;50.328;8.542;2022-09-14T03:41:15;97573.09;;;16.74;100.00
69971;BME280;57301;50.328;8.542;2022-09-14T03:43:42;97568.34;;;16.70;100.00
69971;BME280;57301;50.328;8.542;2022-09-14T03:46:12;97572.00;;;16.88;99.77
69971;BME280;57301;50.328;8.542;2022-09-14T03:48:39;97560.94;;;16.97;98.53
69971;BME280;57301;50.328;8.542;2022-09-14T03:51:07;97558.75;;;17.12;97.54
69971;BME280;57301;50.328;8.542;2022-09-14T03:53:34;97557.06;;;17.17;96.91
69971;BME280;57301;50.328;8.542;2022-09-14T03:56:13;97561.63;;;17.17;96.31
69971;BME280;57301;50.328;8.542;2022-09-14T03:58:41;97561.63;;;17.17;96.46
69971;BME280;57301;50.328;8.542;2022-09-14T04:01:12;97551.47;;;17.19;96.14
69971;BME280;57301;50.328;8.542;2022-09-14T04:03:40;97546.91;;;17.19;96.02
69971;BME280;57301;50.328;8.542;2022-09-14T04:06:07;97545.03;;;17.20;96.05
69971;BME280;57301;50.328;8.542;2022-09-14T04:08:35;97543.97;;;17.21;95.86
69971;BME280;57301;50.328;8.542;2022-09-14T04:11:09;97535.69;;;17.23;95.98
69971;BME280;57301;50.328;8.542;2022-09-14T04:13:36;97532.75;;;17.24;96.00
69971;BME280;57301;50.328;8.542;2022-09-14T04:16:03;97527.38;;;17.24;95.91
69971;BME280;57301;50.328;8.542;2022-09-14T04:18:30;97519.28;;;17.24;96.17
69971;BME280;57301;50.328;8.542;2022-09-14T04:21:02;97520.97;;;17.25;96.05
69971;BME280;57301;50.328;8.542;2022-09-14T04:23:34;97523.78;;;17.30;95.76
69971;BME280;57301;50.328;8.542;2022-09-14T04:26:22;97511.31;;;17.36;95.33
69971;BME280;57301;50.328;8.542;2022-09-14T04:28:49;97507.19;;;17.33;95.54
69971;BME280;57301;50.328;8.542;2022-09-14T04:31:16;97508.44;;;17.31;96.08
69971;BME280;57301;50.328;8.542;2022-09-14T04:33:43;97507.44;;;17.32;95.63
69971;BME280;57301;50.328;8.542;2022-09-14T04:36:14;97504.72;;;17.32;95.47
69971;BME280;57301;50.328;8.542;2022-09-14T04:38:42;97510.59;;;17.22;95.62
69971;BME280;57301;50.328;8.542;2022-09-14T04:41:11;97509.13;;;17.26;95.66
69971;BME280;57301;50.328;8.542;2022-09-14T04:43:38;97506.88;;;17.23;95.63
69971;BME280;57301;50.328;8.542;2022-09-14T04:46:10;97508.31;;;17.26;95.58
69971;BME280;57301;50.328;8.542;2022-09-14T04:48:37;97502.91;;;17.26;95.53
69971;BME280;57301;50.328;8.542;2022-09-14T04:51:07;97502.69;;;17.27;95.43
69971;BME280;57301;50.328;8.542;2022-09-14T04:53:35;97505.97;;;17.29;95.32
69971;BME280;57301;50.328;8.542;2022-09-14T04:56:04;97510.19;;;17.25;95.39
69971;BME280;57301;50.328;8.542;2022-09-14T04:58:32;97495.44;;;17.28;95.31
69971;BME280;57301;50.328;8.542;2022-09-14T05:01:03;97499.19;;;17.27;95.28
69971;BME280;57301;50.328;8.542;2022-09-14T05:03:30;97491.09;;;17.27;95.22
69971;BME280;57301;50.328;8.542;2022-09-14T05:06:01;97501.88;;;17.27;95.36
69971;BME280;57301;50.328;8.542;2022-09-14T05:08:28;97493.16;;;17.25;95.36
69971;BME280;57301;50.328;8.542;2022-09-14T05:10:56;97496.25;;;17.28;95.21
69971;BME280;57301;50.328;8.542;2022-09-14T05:13:23;97486.53;;;17.27;95.13
69971;BME280;57301;50.328;8.542;2022-09-14T05:15:50;97492.16;;;17.26;95.29
69971;BME280;57301;50.328;8.542;2022-09-14T05:18:17;97500.66;;;17.23;95.26
69971;BME280;57301;50.328;8.542;2022-09-14T05:20:44;97486.34;;;17.22;95.20
69971;BME280;57301;50.328;8.542;2022-09-14T05:23:11;97497.13;;;17.22;95.36
69971;BME280;57301;50.328;8.542;2022-09-14T05:25:37;97499.59;;;17.24;95.18
69971;BME280;57301;50.328;8.542;2022-09-14T05:28:04;97495.44;;;17.28;95.06
69971;BME280;57301;50.328;8.542;2022-09-14T05:30:30;97495.66;;;17.26;95.14
69971;BME280;57301;50.328;8.542;2022-09-14T05:32:57;97495.66;;;17.26;95.21
69971;BME280;57301;50.328;8.542;2022-09-14T05:35:23;97486.53;;;17.27;94.97
69971;BME280;57301;50.328;8.542;2022-09-14T05:37:49;97485.69;;;17.27;94.98
69971;BME280;57301;50.328;8.542;2022-09-14T05:40:16;97493.56;;;17.28;95.04
69971;BME280;57301;50.328;8.542;2022-09-14T05:42:43;97496.41;;;17.33;94.88
69971;BME280;57301;50.328;8.542;2022-09-14T05:45:09;97494.78;;;17.32;94.63
69971;BME280;57301;50.328;8.542;2022-09-14T05:47:36;97493.03;;;17.19;96.05
69971;BME280;57301;50.328;8.542;2022-09-14T05:50:05;97494.44;;;17.22;96.08
69971;BME280;57301;50.328;8.542;2022-09-14T05:52:33;97497.31;;;17.27;95.28
69971;BME280;57301;50.328;8.542;2022-09-14T05:55:00;97490.44;;;17.31;95.17
69971;BME280;57301;50.328;8.542;2022-09-14T05:57:26;97489.97;;;17.34;95.21
69971;BME280;57301;50.328;8.542;2022-09-14T05:59:53;97491.63;;;17.35;95.31
69971;BME280;57301;50.328;8.542;2022-09-14T06:02:19;97499.88;;;17.40;95.14
69971;BME280;57301;50.328;8.542;2022-09-14T06:04:46;97493.44;;;17.41;94.89
69971;BME280;57301;50.328;8.542;2022-09-14T06:07:12;97487.00;;;17.42;94.80
69971;BME280;57301;50.328;8.542;2022-09-14T06:09:44;97495.25;;;17.48;94.60
69971;BME280;57301;50.328;8.542;2022-09-14T06:12:11;97498.69;;;17.55;94.26
69971;BME280;57301;50.328;8.542;2022-09-14T06:14:41;97495.34;;;17.59;94.13
69971;BME280;57301;50.328;8.542;2022-09-14T06:17:08;97495.56;;;17.58;93.64
69971;BME280;57301;50.328;8.542;2022-09-14T06:19:34;97486.03;;;17.55;94.12
69971;BME280;57301;50.328;8.542;2022-09-14T06:22:01;97490.41;;;17.56;93.99
69971;BME280;57301;50.328;8.542;2022-09-14T06:24:27;97489.94;;;17.59;94.10
69971;BME280;57301;50.328;8.542;2022-09-14T06:26:54;97484.94;;;17.63;93.77
69971;BME280;57301;50.328;8.542;2022-09-14T06:29:20;97485.69;;;17.70;93.65
69971;BME280;57301;50.328;8.542;2022-09-14T06:31:47;97486.31;;;17.72;93.55
69971;BME280;57301;50.328;8.542;2022-09-14T06:34:13;97487.44;;;17.83;93.16
69971;BME280;57301;50.328;8.542;2022-09-14T06:36:40;97479.94;;;17.85;92.74
69971;BME280;57301;50.328;8.542;2022-09-14T06:39:07;97480.34;;;17.88;92.83
69971;BME280;57301;50.328;8.542;2022-09-14T06:41:34;97477.47;;;17.83;93.11
69971;BME280;57301;50.328;8.542;2022-09-14T06:44:00;97484.97;;;17.81;93.68
69971;BME280;57301;50.328;8.542;2022-09-14T06:46:32;97483.84;;;17.89;93.35
69971;BME280;57301;50.328;8.542;2022-09-14T06:49:04;97489.16;;;17.77;93.83
69971;BME280;57301;50.328;8.542;2022-09-14T06:51:34;97485.88;;;17.75;94.18
69971;BME280;57301;50.328;8.542;2022-09-14T06:54:01;97485.88;;;17.75;94.10
69971;BME280;57301;50.328;8.542;2022-09-14T06:56:37;97476.06;;;17.81;93.99
69971;BME280;57301;50.328;8.542;2022-09-14T06:59:08;97486.31;;;17.90;93.23
69971;BME280;57301;50.328;8.542;2022-09-14T07:01:36;97475.28;;;17.92;92.61
69971;BME280;57301;50.328;8.542;2022-09-14T07:04:03;97485.72;;;17.88;93.67
69971;BME280;57301;50.328;8.542;2022-09-14T07:06:39;97477.09;;;17.98;93.16
69971;BME280;57301;50.328;8.542;2022-09-14T07:09:05;97487.81;;;18.05;92.50
69971;BME280;57301;50.328;8.542;2022-09-14T07:11:32;97490.44;;;18.11;92.39
69971;BME280;57301;50.328;8.542;2022-09-14T07:13:59;97486.84;;;18.17;92.51
69971;BME280;57301;50.328;8.542;2022-09-14T07:16:29;97482.53;;;18.28;91.86
69971;BME280;57301;50.328;8.542;2022-09-14T07:18:57;97487.41;;;18.38;91.42
69971;BME280;57301;50.328;8.542;2022-09-14T07:21:25;97484.38;;;18.46;90.26
69971;BME280;57301;50.328;8.542;2022-09-14T07:23:52;97482.88;;;18.50;90.48
69971;BME280;57301;50.328;8.542;2022-09-14T07:26:24;97486.06;;;18.59;90.32
69971;BME280;57301;50.328;8.542;2022-09-14T07:29:00;97477.44;;;18.68;89.59
69971;BME280;57301;50.328;8.542;2022-09-14T07:31:33;97479.91;;;18.70;89.78
69971;BME280;57301;50.328;8.542;2022-09-14T07:34:01;97474.63;;;18.75;89.32
69971;BME280;57301;50.328;8.542;2022-09-14T07:36:30;97480.13;;;18.68;90.69
69971;BME280;57301;50.328;8.542;2022-09-14T07:39:02;97478.03;;;18.70;90.17
69971;BME280;57301;50.328;8.542;2022-09-14T07:41:30;97472.66;;;18.82;88.79
69971;BME280;57301;50.328;8.542;2022-09-14T07:43:58;97476.88;;;18.90;88.32
69971;BME280;57301;50.328;8.542;2022-09-14T07:46:27;97471.34;;;18.73;87.78
69971;BME280;57301;50.328;8.542;2022-09-14T07:48:56;97464.78;;;18.50;89.23
69971;BME280;57301;50.328;8.542;2022-09-14T07:51:24;97471.69;;;18.46;90.43
69971;BME280;57301;50.328;8.542;2022-09-14T07:53:51;97457.28;;;18.52;89.75
69971;BME280;57301;50.328;8.542;2022-09-14T07:56:18;97447.09;;;18.55;89.16
69971;BME280;57301;50.328;8.542;2022-09-14T07:58:45;97448.44;;;18.45;90.19
69971;BME280;57301;50.328;8.542;2022-09-14T08:01:17;97466.28;;;18.46;91.28
69971;BME280;57301;50.328;8.542;2022-09-14T08:03:44;97478.53;;;18.49;90.08
69971;BME280;57301;50.328;8.542;2022-09-14T08:06:15;97479.50;;;18.55;88.68
69971;BME280;57301;50.328;8.542;2022-09-14T08:08:45;97459.25;;;18.75;89.43
69971;BME280;57301;50.328;8.542;2022-09-14T08:11:14;97457.78;;;18.91;88.89
69971;BME280;57301;50.328;8.542;2022-09-14T08:13:43;97462.47;;;19.08;88.57
69971;BME280;57301;50.328;8.542;2022-09-14T08:16:11;97464.84;;;19.16;86.55
69971;BME280;57301;50.328;8.542;2022-09-14T08:18:38;97478.81;;;18.41;89.07
69971;BME280;57301;50.328;8.542;2022-09-14T08:21:09;97486.38;;;18.50;90.89
69971;BME280;57301;50.328;8.542;2022-09-14T08:23:36;97479.91;;;18.21;92.68
69971;BME280;57301;50.328;8.542;2022-09-14T08:26:14;97484.47;;;18.39;91.95
69971;BME280;57301;50.328;8.542;2022-09-14T08:28:41;97467.47;;;18.69;91.14
69971;BME280;57301;50.328;8.542;2022-09-14T08:31:13;97478.75;;;18.77;90.80
69971;BME280;57301;50.328;8.542;2022-09-14T08:33:42;97483.31;;;18.77;89.77
69971;BME280;57301;50.328;8.542;2022-09-14T08:36:12;97469.19;;;18.33;91.29
69971;BME280;57301;50.328;8.542;2022-09-14T08:38:39;97463.78;;;18.63;90.88
69971;BME280;57301;50.328;8.542;2022-09-14T08:41:34;97470.75;;;17.92;93.74
69971;BME280;57301;50.328;8.542;2022-09-14T08:44:30;97471.66;;;18.16;94.18
69971;BME280;57301;50.328;8.542;2022-09-14T08:47:02;97478.06;;;18.04;95.22
69971;BME280;57301;50.328;8.542;2022-09-14T08:52:11;97483.88;;;17.64;96.49
69971;BME280;57301;50.328;8.542;2022-09-14T08:54:38;97482.88;;;18.02;95.77
69971;BME280;57301;50.328;8.542;2022-09-14T08:57:22;97492.72;;;18.26;94.99
69971;BME280;57301;50.328;8.542;2022-09-14T09:10:38;97487.81;;;18.23;94.61
69971;BME280;57301;50.328;8.542;2022-09-14T09:13:08;97478.41;;;18.25;94.66
69971;BME280;57301;50.328;8.542;2022-09-14T09:15:45;97477.38;;;18.26;96.14
69971;BME280;57301;50.328;8.542;2022-09-14T09:18:27;97484.50;;;18.51;93.29
69971;BME280;57301;50.328;8.542;2022-09-14T09:21:06;97478.94;;;18.16;95.30
69971;BME280;57301;50.328;8.542;2022-09-14T09:23:34;97474.72;;;18.38;94.16
69971;BME280;57301;50.328;8.542;2022-09-14T09:26:12;97472.88;;;18.20;93.67
69971;BME280;57301;50.328;8.542;2022-09-14T09:28:46;97479.56;;;18.18;94.44
69971;BME280;57301;50.328;8.542;2022-09-14T09:31:16;97483.31;;;18.47;93.65
69971;BME280;57301;50.328;8.542;2022-09-14T09:33:45;97495.69;;;18.55;92.37
69971;BME280;57301;50.328;8.542;2022-09-14T09:36:13;97499.50;;;18.17;94.32
69971;BME280;57301;50.328;8.542;2022-09-14T09:38:41;97507.94;;;18.39;92.72
69971;BME280;57301;50.328;8.542;2022-09-14T09:43:34;97491.69;;;18.09;94.87
69971;BME280;57301;50.328;8.542;2022-09-14T09:46:16;97485.66;;;17.95;96.68
69971;BME280;57301;50.328;8.542;2022-09-14T09:48:44;97477.31;;;17.78;97.79
69971;BME280;57301;50.328;8.542;2022-09-14T09:51:13;97472.38;;;18.12;95.95
69971;BME280;57301;50.328;8.542;2022-09-14T09:53:56;97468.50;;;18.38;94.20
69971;BME280;57301;50.328;8.542;2022-09-14T09:56:27;97459.88;;;18.89;91.97
69971;BME280;57301;50.328;8.542;2022-09-14T09:58:54;97456.50;;;19.05;91.17
69971;BME280;57301;50.328;8.542;2022-09-14T10:01:32;97457.44;;;19.23;88.22
69971;BME280;57301;50.328;8.542;2022-09-14T10:04:14;97462.25;;;18.97;89.48
69971;BME280;57301;50.328;8.542;2022-09-14T10:06:46;97463.56;;;19.30;89.33
69971;BME280;57301;50.328;8.542;2022-09-14T10:09:20;97470.13;;;19.57;88.22
69971;BME280;57301;50.328;8.542;2022-09-14T10:11:57;97462.38;;;19.26;89.59
69971;BME280;57301;50.328;8.542;2022-09-14T10:14:33;97462.03;;;19.34;89.95
69971;BME280;57301;50.328;8.542;2022-09-14T10:17:15;97462.72;;;19.18;89.79
69971;BME280;57301;50.328;8.542;2022-09-14T10:19:47;97445.47;;;19.30;88.81
69971;BME280;57301;50.328;8.542;2022-09-14T10:22:36;97438.53;;;19.58;87.13
69971;BME280;57301;50.328;8.542;2022-09-14T10:35:22;97431.13;;;19.53;87.00
69971;BME280;57301;50.328;8.542;2022-09-14T10:40:37;97423.16;;;19.58;88.39
69971;BME280;57301;50.328;8.542;2022-09-14T10:43:13;97411.38;;;19.18;89.29
69971;BME280;57301;50.328;8.542;2022-09-14T10:45:51;97410.38;;;19.82;88.00
69971;BME280;57301;50.328;8.542;2022-09-14T10:49:03;97412.44;;;20.04;86.47
69971;BME280;57301;50.328;8.542;2022-09-14T10:57:45;97405.34;;;19.39;86.73
69971;BME280;57301;50.328;8.542;2022-09-14T11:00:14;97397.59;;;19.54;87.02
69971;BME280;57301;50.328;8.542;2022-09-14T11:03:07;97401.38;;;19.30;88.81
69971;BME280;57301;50.328;8.542;2022-09-14T11:06:26;97404.22;;;19.58;87.47
69971;BME280;57301;50.328;8.542;2022-09-14T11:08:45;97404.38;;;19.80;86.69
69971;BME280;57301;50.328;8.542;2022-09-14T11:19:41;97402.91;;;20.58;83.33
69971;BME280;57301;50.328;8.542;2022-09-14T11:27:32;97397.69;;;20.69;83.10
69971;BME280;57301;50.328;8.542;2022-09-14T11:30:14;97408.16;;;20.48;82.21
69971;BME280;57301;50.328;8.542;2022-09-14T11:33:11;97396.25;;;20.49;83.58
69971;BME280;57301;50.328;8.542;2022-09-14T11:35:45;97402.81;;;19.96;84.22
69971;BME280;57301;50.328;8.542;2022-09-14T11:38:19;97404.47;;;19.97;84.49
69971;BME280;57301;50.328;8.542;2022-09-14T11:43:46;97401.38;;;20.34;85.21
69971;BME280;57301;50.328;8.542;2022-09-14T11:46:21;97401.94;;;20.36;85.00
69971;BME280;57301;50.328;8.542;2022-09-14T11:48:58;97394.53;;;20.60;83.39
69971;BME280;57301;50.328;8.542;2022-09-14T11:54:14;97393.75;;;20.76;84.34
69971;BME280;57301;50.328;8.542;2022-09-14T11:56:42;97399.34;;;21.81;81.38
69971;BME280;57301;50.328;8.542;2022-09-14T12:12:52;97381.59;;;22.76;73.80
69971;BME280;57301;50.328;8.542;2022-09-14T12:18:14;97388.06;;;22.11;76.41
69971;BME280;57301;50.328;8.542;2022-09-14T12:20:47;97384.25;;;22.39;75.71
69971;BME280;57301;50.328;8.542;2022-09-14T12:28:42;97358.66;;;23.83;69.07
69971;BME280;57301;50.328;8.542;2022-09-14T12:34:24;97359.25;;;25.64;61.10
69971;BME280;57301;50.328;8.542;2022-09-14T12:44:47;97345.88;;;22.08;75.00
69971;BME280;57301;50.328;8.542;2022-09-14T12:49:55;97335.59;;;21.61;77.57
69971;BME280;57301;50.328;8.542;2022-09-14T12:53:00;97337.59;;;21.71;77.10
69971;BME280;57301;50.328;8.542;2022-09-14T12:55:41;97343.47;;;22.34;75.65
69971;BME280;57301;50.328;8.542;2022-09-14T13:06:11;97339.59;;;22.24;74.51
69971;BME280;57301;50.328;8.542;2022-09-14T13:08:43;97340.00;;;22.11;74.30
69971;BME280;57301;50.328;8.542;2022-09-14T13:11:18;97351.97;;;22.15;75.98
69971;BME280;57301;50.328;8.542;2022-09-14T13:13:46;97354.84;;;22.09;75.40
69971;BME280;57301;50.328;8.542;2022-09-14T13:16:18;97344.28;;;21.41;77.41
69971;BME280;57301;50.328;8.542;2022-09-14T13:18:48;97337.69;;;21.15;79.37
69971;BME280;57301;50.328;8.542;2022-09-14T13:21:18;97333.41;;;20.81;80.95
69971;BME280;57301;50.328;8.542;2022-09-14T13:23:45;97327.19;;;21.02;80.75
69971;BME280;57301;50.328;8.542;2022-09-14T13:26:18;97318.69;;;20.77;81.96
69971;BME280;57301;50.328;8.542;2022-09-14T13:28:47;97316.72;;;20.72;82.48
69971;BME280;57301;50.328;8.542;2022-09-14T13:31:24;97308.75;;;20.82;82.10
69971;BME280;57301;50.328;8.542;2022-09-14T13:33:53;97306.75;;;20.95;81.41
69971;BME280;57301;50.328;8.542;2022-09-14T13:36:23;97311.56;;;21.09;81.06
69971;BME280;57301;50.328;8.542;2022-09-14T13:38:51;97305.13;;;21.32;79.94
69971;BME280;57301;50.328;8.542;2022-09-14T13:41:19;97301.59;;;21.32;79.66
69971;BME280;57301;50.328;8.542;2022-09-14T13:43:51;97308.22;;;21.41;79.42
69971;BME280;57301;50.328;8.542;2022-09-14T13:46:21;97298.25;;;21.46;78.12
69971;BME280;57301;50.328;8.542;2022-09-14T13:48:48;97285.44;;;21.42;79.40
69971;BME280;57301;50.328;8.542;2022-09-14T13:51:22;97295.00;;;21.06;79.79
69971;BME280;57301;50.328;8.542;2022-09-14T13:53:51;97286.47;;;20.80;81.34
69971;BME280;57301;50.328;8.542;2022-09-14T13:56:33;97282.81;;;20.70;82.98
69971;BME280;57301;50.328;8.542;2022-09-14T14:01:36;97300.19;;;20.90;81.72
69971;BME280;57301;50.328;8.542;2022-09-14T14:04:03;97297.00;;;20.77;82.78
69971;BME280;57301;50.328;8.542;2022-09-14T14:06:32;97297.84;;;20.60;83.10
69971;BME280;57301;50.328;8.542;2022-09-14T14:09:08;97291.84;;;20.75;82.60
69971;BME280;57301;50.328;8.542;2022-09-14T14:11:44;97291.97;;;20.85;82.74
69971;BME280;57301;50.328;8.542;2022-09-14T14:14:18;97296.66;;;20.90;82.83
69971;BME280;57301;50.328;8.542;2022-09-14T14:19:50;97287.00;;;20.60;84.88
69971;BME280;57301;50.328;8.542;2022-09-14T14:22:18;97283.09;;;20.51;85.32
69971;BME280;57301;50.328;8.542;2022-09-14T14:24:47;97289.34;;;20.23;86.99
69971;BME280;57301;50.328;8.542;2022-09-14T14:27:43;97292.03;;;19.90;88.85
69971;BME280;57301;50.328;8.542;2022-09-14T14:30:19;97283.75;;;20.13;87.62
69971;BME280;57301;50.328;8.542;2022-09-14T14:32:50;97282.69;;;20.31;87.08
69971;BME280;57301;50.328;8.542;2022-09-14T14:35:20;97279.56;;;20.51;86.17
69971;BME280;57301;50.328;8.542;2022-09-14T14:37:48;97282.31;;;20.56;86.13
69971;BME280;57301;50.328;8.542;2022-09-14T14:40:16;97273.97;;;20.57;85.83
69971;BME280;57301;50.328;8.542;2022-09-14T14:42:43;97269.13;;;20.59;85.78
69971;BME280;57301;50.328;8.542;2022-09-14T14:45:15;97279.59;;;20.56;86.06
69971;BME280;57301;50.328;8.542;2022-09-14T14:47:45;97272.91;;;20.58;86.61
69971;BME280;57301;50.328;8.542;2022-09-14T14:50:18;97277.25;;;20.59;86.56
69971;BME280;57301;50.328;8.542;2022-09-14T14:52:44;97276.16;;;20.60;86.89
69971;BME280;57301;50.328;8.542;2022-09-14T14:55:11;97271.56;;;20.61;86.71
69971;BME280;57301;50.328;8.542;2022-09-14T14:57:38;97282.09;;;20.57;86.29
69971;BME280;57301;50.328;8.542;2022-09-14T15:00:16;97268.88;;;20.44;86.64
69971;BME280;57301;50.328;8.542;2022-09-14T15:02:44;97264.22;;;20.56;87.27
69971;BME280;57301;50.328;8.542;2022-09-14T15:05:11;97258.91;;;20.66;87.15
69971;BME280;57301;50.328;8.542;2022-09-14T15:07:38;97263.03;;;20.69;87.49
69971;BME280;57301;50.328;8.542;2022-09-14T15:10:06;97269.84;;;20.72;87.00
69971;BME280;57301;50.328;8.542;2022-09-14T15:12:33;97276.16;;;20.77;86.43
69971;BME280;57301;50.328;8.542;2022-09-14T15:15:00;97281.22;;;20.74;85.96
69971;BME280;57301;50.328;8.542;2022-09-14T15:17:26;97276.63;;;20.74;86.45
69971;BME280;57301;50.328;8.542;2022-09-14T15:19:53;97278.41;;;20.63;86.59
69971;BME280;57301;50.328;8.542;2022-09-14T15:22:19;97271.44;;;20.51;87.13
69971;BME280;57301;50.328;8.542;2022-09-14T15:24:46;97266.50;;;20.48;85.23
69971;BME280;57301;50.328;8.542;2022-09-14T15:27:12;97266.06;;;20.39;86.36
69971;BME280;57301;50.328;8.542;2022-09-14T15:29:39;97243.25;;;20.18;86.51
69971;BME280;57301;50.328;8.542;2022-09-14T15:32:05;97240.59;;;20.06;88.07
69971;BME280;57301;50.328;8.542;2022-09-14T15:34:32;97242.91;;;19.98;89.34